Flight Track Log - Related Links

Times and Time Zones

All times are in EDT time to prevent confusion due to time zone crossing. See the CTL312 flight status page for this flight to view local times or setup timezone preferences in your user account.

Time Position Orientation Groundspeed Altitude Reporting Facility
EDT Latitude Longitude Course Direction KTS MPH feet Rate Location/Type
Thu 09:42:56 PM 41.5147 -81.7006 338° Northwest 129 148 1,100  Level Cleveland Center
Thu 09:43:50 PM 41.5417 -81.7150 338° Northwest 139 160 2,000 835 Climbing Cleveland Center
Thu 09:44:51 PM 41.5725 -81.7517 318° Northwest 141 162 2,700 678 Climbing Cleveland Center
Thu 09:45:45 PM 41.5889 -81.7908 299° West 144 166 3,300 678 Climbing Cleveland Center
Thu 09:46:46 PM 41.6028 -81.8439 289° West 142 163 4,000 645 Climbing Cleveland Center
Thu 09:47:46 PM 41.6189 -81.8942 293° West 147 169 4,600 606 Climbing Cleveland Center
Thu 09:48:35 PM 41.6311 -81.9333 293° West 144 166 5,100 600 Climbing Cleveland Center
Thu 09:49:36 PM 41.6492 -81.9808 297° West 146 168 5,700 545 Climbing Cleveland Center
Thu 09:50:36 PM 41.6653 -82.0342 292° West 153 176 6,200 189 Climbing Cleveland Center
Thu 09:51:43 PM 41.6831 -82.0983 290° West 163 188 6,100 -45 Descending Cleveland Center
Thu 09:52:50 PM 41.6969 -82.1544 288° West 156 180 6,100  Level Cleveland Center
Thu 09:53:44 PM 41.7128 -82.2047 293° West 158 182 6,100 -49 Level Cleveland Center
Thu 09:54:52 PM 41.7350 -82.2667 296° West 156 180 6,000 -39 Descending Cleveland Center
Thu 09:56:17 PM 41.7589 -82.3422 293° West 156 180 6,000  Level Cleveland Center
Thu 09:57:18 PM 41.7767 -82.3931 295° West 156 180 6,000  Level Cleveland Center
Thu 09:58:25 PM 41.7989 -82.4519 297° West 156 180 6,000  Level Cleveland Center
Thu 09:59:31 PM 41.8167 -82.5111 292° West 156 180 6,000  Level Cleveland Center
Thu 10:00:26 PM 41.8281 -82.5644 286° West 155 178 6,000  Level Cleveland Center
Thu 10:01:21 PM 41.8397 -82.6122 288° West 156 180 6,000 -50 Level Cleveland Center
Thu 10:02:27 PM 41.8703 -82.6606 310° West 161 185 5,900  Descending Cleveland Center
Thu 10:03:28 PM 41.9072 -82.6925 327° Northwest 157 181 6,000 49 Climbing Cleveland Center
Thu 10:04:29 PM 41.9439 -82.7300 323° Northwest 158 182 6,000  Level Cleveland Center
Thu 10:05:29 PM 41.9808 -82.7619 327° Northwest 160 184 6,000 -55 Level Cleveland Center
Thu 10:06:18 PM 42.0117 -82.7881 328° Northwest 162 186 5,900 -52 Descending Cleveland Center
Thu 10:07:25 PM 42.0528 -82.8231 328° Northwest 159 183 5,900 47 Level Cleveland Center
Thu 10:08:26 PM 42.0875 -82.8606 321° Northwest 159 183 6,000 -98 Climbing Cleveland Center
Thu 10:09:27 PM 42.1264 -82.8928 328° Northwest 167 192 5,700 -365 Descending Cleveland Center
Thu 10:10:21 PM 42.1611 -82.9250 325° Northwest 169 194 5,300 -518 Descending Cleveland Center
Thu 10:11:46 PM 42.2206 -82.9747 328° Northwest 173 199 4,500 -537 Descending Cleveland Center
Thu 10:12:35 PM 42.2514 -83.0042 325° Northwest 170 196 4,100 -621 Descending Cleveland Center
Thu 10:13:42 PM 42.2964 -83.0394 330° Northwest 170 196 3,300 -583 Descending Cleveland Center
Thu 10:14:18 PM 42.3208 -83.0600 328° Northwest 169 194 3,100 -157 Descending Cleveland Center
Thu 10:15:37 PM 42.3678 -83.1069 324° Northwest 153 176 3,000 -43 Descending Cleveland Center
Thu 10:16:38 PM 42.4025 -83.1392 326° Northwest 152 175 3,000  Level Cleveland Center
Thu 10:17:38 PM 42.4372 -83.1744 323° Northwest 152 175 3,000  Level Cleveland Center
Thu 10:18:39 PM 42.4697 -83.2094 322° Northwest 152 175 3,000  Level Cleveland Center
Thu 10:19:22 PM 42.4964 -83.2303 330° Northwest 153 176 3,000 -165 Level Cleveland Center
Thu 10:20:28 PM 42.5375 -83.2575 334° Northwest 161 185 2,700 -283 Descending Cleveland Center
Thu 10:21:29 PM 42.5764 -83.2900 328° Northwest 159 183 2,400 -295 Descending Cleveland Center
Thu 10:22:30 PM 42.6108 -83.3253 323° Northwest 146 168 2,100 -269 Descending Cleveland Center
Thu 10:23:43 PM 42.6453 -83.3664 319° Northwest 134 154 1,800 -247 Descending Cleveland Center
Thu 10:25:00 PM 42.6500 -83.4167 304° West  Level FlightAware Approximate
Thu 10:32:00 PM 42.6656 -83.4205 304° West  Level Estimated
Thu 10:33:00 PM 42.6656 -83.4205 304° West  Level Estimated

Login

Don't have an account? Register now (free) for customized features, flight alerts, and more!